Time;durP1;ratioP1;P1;durP2;ratioP2;P2;SDS_P1;SDS_P2;PMS_P1;PMS_P2;Temp;Humidity;BMP_temperature;BMP_pressure;BME280_temperature;BME280_humidity;BME280_pressure;Samples;Min_cycle;Max_cycle;Signal;HPM_P1;HPM_P2
2023/10/03 00:00:09;;;;;;;73.95;38.38;;;17.20;86.40;;;;;;4991273;28;20116;-68
2023/10/03 00:02:34;;;;;;;66.80;35.95;;;17.20;86.40;;;;;;4991698;28;20054;-67
2023/10/03 00:05:00;;;;;;;69.75;36.95;;;17.20;86.30;;;;;;4991528;28;20137;-67
2023/10/03 00:07:26;;;;;;;68.63;35.10;;;17.20;86.30;;;;;;5004744;28;20042;-67
2023/10/03 00:09:52;;;;;;;71.07;36.65;;;17.20;86.30;;;;;;5011322;28;20050;-68
2023/10/03 00:12:18;;;;;;;62.40;33.78;;;17.20;86.30;;;;;;5005356;28;20113;-67
2023/10/03 00:14:43;;;;;;;70.53;36.17;;;17.20;86.40;;;;;;4991606;28;20046;-67
2023/10/03 00:17:09;;;;;;;66.93;34.50;;;17.20;86.30;;;;;;4990948;28;20078;-67
2023/10/03 00:19:34;;;;;;;69.18;34.63;;;17.20;86.30;;;;;;4996385;28;20081;-68
2023/10/03 00:22:00;;;;;;;64.63;34.70;;;17.20;86.30;;;;;;5009996;28;20046;-67
2023/10/03 00:24:26;;;;;;;64.65;34.20;;;17.20;86.30;;;;;;5010331;28;20060;-67
2023/10/03 00:26:53;;;;;;;66.55;35.60;;;17.20;86.30;;;;;;5010710;28;20045;-67
2023/10/03 00:29:23;;;;;;;63.25;34.15;;;17.10;86.40;;;;;;4990461;28;20054;-68
2023/10/03 00:31:50;;;;;;;66.68;35.30;;;17.20;86.40;;;;;;5004236;28;20053;-67
2023/10/03 00:34:15;;;;;;;69.32;35.60;;;17.20;86.30;;;;;;4994325;28;20837;-68
2023/10/03 00:36:41;;;;;;;74.72;36.38;;;17.20;86.20;;;;;;4973172;28;20050;-67
2023/10/03 00:39:07;;;;;;;72.03;36.78;;;17.20;86.20;;;;;;4990859;28;20154;-67
2023/10/03 00:41:34;;;;;;;65.07;34.60;;;17.20;86.20;;;;;;4990835;28;20162;-67
2023/10/03 00:44:04;;;;;;;62.90;35.72;;;17.20;86.00;;;;;;4989364;28;20112;-67
2023/10/03 00:46:31;;;;;;;68.38;36.35;;;17.20;86.00;;;;;;4990177;28;20050;-67
2023/10/03 00:48:57;;;;;;;63.90;35.55;;;17.20;86.00;;;;;;4973657;28;20061;-67
2023/10/03 00:51:24;;;;;;;65.70;35.35;;;17.20;85.90;;;;;;4990651;28;20046;-67
2023/10/03 00:53:55;;;;;;;64.30;34.63;;;17.20;85.90;;;;;;4972917;28;20548;-67
2023/10/03 00:56:22;;;;;;;64.53;34.83;;;17.20;85.80;;;;;;4993416;28;20050;-67
2023/10/03 00:58:48;;;;;;;67.38;34.60;;;17.20;85.70;;;;;;5009186;28;20077;-67
2023/10/03 01:01:15;;;;;;;61.45;35.05;;;17.20;85.70;;;;;;4991836;28;20088;-67
2023/10/03 01:03:40;;;;;;;66.55;34.03;;;17.10;85.70;;;;;;4990026;28;20071;-67
2023/10/03 01:06:12;;;;;;;60.50;33.42;;;17.10;85.70;;;;;;4990501;28;20050;-68
2023/10/03 01:08:42;;;;;;;60.90;34.25;;;17.10;85.60;;;;;;4990008;28;20125;-68
2023/10/03 01:11:15;;;;;;;59.47;33.55;;;17.00;85.60;;;;;;4989882;28;20878;-68
2023/10/03 01:13:47;;;;;;;59.78;33.38;;;17.00;85.50;;;;;;5002776;28;20129;-67
2023/10/03 01:16:27;;;;;;;57.13;33.03;;;17.00;85.40;;;;;;4977595;28;20101;-66
2023/10/03 01:18:53;;;;;;;55.95;32.55;;;17.00;85.40;;;;;;4990417;28;20042;-67
2023/10/03 01:21:21;;;;;;;60.42;33.53;;;17.00;85.30;;;;;;4989608;28;20101;-67
2023/10/03 01:23:47;;;;;;;61.97;33.08;;;17.00;85.30;;;;;;4972897;28;20082;-67
2023/10/03 01:26:14;;;;;;;56.83;32.30;;;17.00;85.20;;;;;;4990327;28;20078;-68
2023/10/03 01:28:40;;;;;;;55.03;32.38;;;17.00;85.10;;;;;;5003179;28;20049;-67
2023/10/03 01:31:06;;;;;;;57.67;31.17;;;17.00;85.10;;;;;;5005989;28;20046;-66
2023/10/03 01:33:33;;;;;;;56.22;31.65;;;17.00;85.10;;;;;;4990094;28;20085;-67
2023/10/03 01:36:01;;;;;;;51.67;30.23;;;16.90;85.00;;;;;;5009525;28;20115;-66
2023/10/03 01:38:27;;;;;;;52.13;29.80;;;16.90;84.90;;;;;;5009584;28;20054;-68
2023/10/03 01:40:54;;;;;;;52.38;29.80;;;16.90;84.70;;;;;;5001810;28;20053;-68
2023/10/03 01:43:20;;;;;;;57.65;31.75;;;17.00;84.60;;;;;;4989509;28;20062;-68
2023/10/03 01:45:46;;;;;;;61.13;30.92;;;17.00;84.40;;;;;;4998304;28;20050;-68
2023/10/03 01:48:12;;;;;;;61.50;30.45;;;17.00;84.30;;;;;;5009721;28;20125;-68
2023/10/03 01:50:38;;;;;;;54.70;29.65;;;17.00;84.20;;;;;;5009364;28;20388;-69
2023/10/03 01:53:07;;;;;;;52.78;29.13;;;17.00;84.00;;;;;;4993547;28;20113;-68
2023/10/03 01:55:34;;;;;;;50.22;29.42;;;17.10;83.80;;;;;;4989544;28;20113;-69
2023/10/03 01:57:59;;;;;;;55.95;31.13;;;17.10;83.70;;;;;;4988802;28;20042;-67
2023/10/03 02:00:26;;;;;;;50.50;30.00;;;17.10;83.70;;;;;;4989430;28;20038;-68
2023/10/03 02:02:56;;;;;;;53.33;30.55;;;17.10;83.60;;;;;;4989628;28;20057;-67
2023/10/03 02:05:24;;;;;;;51.90;29.33;;;17.00;83.40;;;;;;4989874;28;20461;-67
2023/10/03 02:07:57;;;;;;;53.20;29.83;;;17.00;83.40;;;;;;4989674;28;20100;-67
2023/10/03 02:10:23;;;;;;;51.15;28.83;;;17.00;83.30;;;;;;4971225;28;20405;-68
2023/10/03 02:12:48;;;;;;;53.90;30.65;;;17.00;83.30;;;;;;4989720;28;20065;-67
2023/10/03 02:15:23;;;;;;;57.92;29.83;;;17.00;83.20;;;;;;4990243;28;20045;-68
2023/10/03 02:17:53;;;;;;;50.47;28.15;;;17.00;83.20;;;;;;4972400;28;20148;-67
2023/10/03 02:20:20;;;;;;;52.90;29.25;;;17.00;83.10;;;;;;4990089;28;20328;-68
2023/10/03 02:22:56;;;;;;;53.83;28.67;;;17.00;83.00;;;;;;4988501;28;20054;-66
2023/10/03 02:25:22;;;;;;;49.63;28.05;;;17.00;82.90;;;;;;4989595;28;20125;-68
2023/10/03 02:27:53;;;;;;;53.70;27.73;;;17.00;82.90;;;;;;4989435;28;20082;-67
2023/10/03 02:30:25;;;;;;;53.10;28.80;;;17.00;82.70;;;;;;4989917;28;20058;-68
2023/10/03 02:33:04;;;;;;;48.03;27.27;;;17.00;82.70;;;;;;4988932;28;20414;-68
2023/10/03 02:35:30;;;;;;;45.28;25.20;;;17.00;82.70;;;;;;5005761;28;20199;-68
2023/10/03 02:37:56;;;;;;;52.22;28.10;;;17.00;82.50;;;;;;4998560;28;20054;-68
2023/10/03 02:40:26;;;;;;;47.08;26.33;;;17.00;82.50;;;;;;4989334;28;20078;-67
2023/10/03 02:42:54;;;;;;;43.50;24.13;;;17.00;82.30;;;;;;4988264;28;20070;-67
2023/10/03 02:45:25;;;;;;;49.47;25.85;;;17.00;82.10;;;;;;4988567;28;20058;-67
2023/10/03 02:48:08;;;;;;;43.83;24.40;;;17.00;82.10;;;;;;4989405;28;20054;-67
2023/10/03 02:50:34;;;;;;;42.40;24.30;;;17.00;82.00;;;;;;4978288;28;20058;-68
2023/10/03 02:53:05;;;;;;;42.72;24.23;;;17.00;81.80;;;;;;4991667;28;20108;-67
2023/10/03 02:55:31;;;;;;;49.35;25.20;;;17.00;81.60;;;;;;4992196;28;20078;-67
2023/10/03 02:57:57;;;;;;;45.45;25.50;;;17.10;81.60;;;;;;4995757;28;20378;-68
2023/10/03 03:00:22;;;;;;;40.38;22.75;;;17.20;81.60;;;;;;5001068;28;20038;-68
2023/10/03 03:02:49;;;;;;;44.17;24.83;;;17.10;81.50;;;;;;5008655;28;20082;-67
2023/10/03 03:05:16;;;;;;;44.78;24.45;;;17.20;81.50;;;;;;5012238;28;20129;-68
2023/10/03 03:07:48;;;;;;;44.95;25.27;;;17.10;81.50;;;;;;5008401;28;20078;-68
2023/10/03 03:10:17;;;;;;;42.85;23.83;;;17.20;81.40;;;;;;4992410;28;20142;-66
2023/10/03 03:12:44;;;;;;;44.70;23.90;;;17.10;81.30;;;;;;4992623;28;20046;-67
2023/10/03 03:15:22;;;;;;;39.30;22.83;;;17.20;81.20;;;;;;4992319;28;20053;-68
2023/10/03 03:17:52;;;;;;;42.78;23.65;;;17.20;81.20;;;;;;4991962;28;20512;-67
2023/10/03 03:20:19;;;;;;;46.08;23.60;;;17.20;81.10;;;;;;4992299;28;20046;-68
2023/10/03 03:22:47;;;;;;;41.95;22.73;;;17.20;81.10;;;;;;4992217;28;20125;-68
2023/10/03 03:25:24;;;;;;;43.97;23.33;;;17.20;81.10;;;;;;4992108;28;20054;-68
2023/10/03 03:27:54;;;;;;;41.92;23.40;;;17.20;81.00;;;;;;4998850;28;20453;-67
2023/10/03 03:32:58;;;;;;;44.92;22.45;;;17.20;80.80;;;;;;4992144;28;20050;-67
2023/10/03 03:35:24;;;;;;;43.13;22.23;;;17.30;80.70;;;;;;5007692;28;20049;-68
2023/10/03 03:37:56;;;;;;;44.58;20.65;;;17.40;80.50;;;;;;5001826;28;20382;-68
2023/10/03 03:40:34;;;;;;;41.67;22.27;;;17.40;80.60;;;;;;4991846;28;20046;-68
2023/10/03 03:43:01;;;;;;;40.53;22.10;;;17.50;80.40;;;;;;4984549;28;20113;-67
2023/10/03 03:45:27;;;;;;;41.67;22.13;;;17.50;80.50;;;;;;4985434;28;20707;-68
2023/10/03 03:47:56;;;;;;;39.80;21.67;;;17.50;80.30;;;;;;4985280;28;20082;-67
2023/10/03 03:50:22;;;;;;;39.97;21.33;;;17.50;80.30;;;;;;4982656;28;20042;-67
2023/10/03 03:52:49;;;;;;;41.30;21.30;;;17.60;80.00;;;;;;4991369;28;20042;-68
2023/10/03 03:55:17;;;;;;;39.65;21.02;;;17.60;80.00;;;;;;4991502;28;20053;-67
2023/10/03 03:57:45;;;;;;;39.42;20.75;;;17.70;79.80;;;;;;4991541;28;20047;-68
2023/10/03 04:00:14;;;;;;;41.78;20.90;;;17.80;79.70;;;;;;4992998;28;20105;-66
2023/10/03 04:02:40;;;;;;;38.42;20.60;;;17.80;79.70;;;;;;4991078;28;20080;-68
2023/10/03 04:05:20;;;;;;;43.33;20.63;;;17.80;79.60;;;;;;4985719;28;20051;-67
2023/10/03 04:07:53;;;;;;;38.15;20.08;;;17.80;79.60;;;;;;4960371;28;20576;-68
2023/10/03 04:10:19;;;;;;;35.85;20.38;;;17.80;79.50;;;;;;4964502;28;20355;-67
2023/10/03 04:12:45;;;;;;;36.40;19.88;;;17.80;79.40;;;;;;4966802;28;20065;-68
2023/10/03 04:15:15;;;;;;;39.20;19.85;;;17.80;79.30;;;;;;4960714;28;20121;-67
2023/10/03 04:17:42;;;;;;;38.33;20.55;;;17.90;79.30;;;;;;4971246;28;20835;-68
2023/10/03 04:22:43;;;;;;;38.38;19.77;;;17.90;79.10;;;;;;4971030;28;20153;-67
2023/10/03 04:25:13;;;;;;;37.10;20.05;;;17.90;79.20;;;;;;4965802;28;20086;-68
2023/10/03 04:27:39;;;;;;;37.10;19.90;;;17.80;79.20;;;;;;4984209;28;20093;-67
2023/10/03 04:30:09;;;;;;;35.22;20.13;;;17.80;79.20;;;;;;4970064;28;20054;-67
2023/10/03 04:32:35;;;;;;;37.10;20.08;;;17.80;79.30;;;;;;4963452;28;20054;-68
2023/10/03 04:35:05;;;;;;;38.72;20.45;;;17.80;79.40;;;;;;4980047;28;20050;-67
2023/10/03 04:37:31;;;;;;;41.45;20.73;;;17.80;79.50;;;;;;4976158;28;20108;-69
2023/10/03 04:39:56;;;;;;;41.15;20.98;;;17.80;79.60;;;;;;4971148;28;20051;-68
2023/10/03 04:42:22;;;;;;;39.25;19.23;;;17.80;79.60;;;;;;4967002;28;20436;-67
2023/10/03 04:44:48;;;;;;;34.53;19.17;;;17.80;79.70;;;;;;4971540;28;20055;-68
2023/10/03 04:47:14;;;;;;;39.80;20.50;;;17.80;79.80;;;;;;4957526;28;20433;-66
2023/10/03 04:49:39;;;;;;;39.90;20.88;;;17.80;79.80;;;;;;4984735;28;20421;-69
2023/10/03 04:52:07;;;;;;;36.03;19.40;;;17.90;79.80;;;;;;4983390;28;20082;-68
2023/10/03 04:54:33;;;;;;;35.10;19.40;;;18.00;79.90;;;;;;4972012;28;20533;-70
2023/10/03 04:56:59;;;;;;;38.25;20.15;;;18.00;80.00;;;;;;4990055;28;20490;-66
2023/10/03 04:59:25;;;;;;;38.00;19.55;;;18.10;80.00;;;;;;4968076;28;20123;-68
2023/10/03 05:01:51;;;;;;;39.70;19.95;;;18.10;80.00;;;;;;4968316;28;20095;-66
2023/10/03 05:04:17;;;;;;;41.50;20.08;;;18.20;80.10;;;;;;4969583;28;20061;-68
2023/10/03 05:06:47;;;;;;;40.38;19.60;;;18.20;80.20;;;;;;4969583;28;20094;-69
2023/10/03 05:12:54;;;;;;;44.58;20.70;;;18.30;80.70;;;;;;4922890;23;20099;-68
2023/10/03 05:15:20;;;;;;;36.55;19.55;;;18.40;80.90;;;;;;4919977;29;20053;-68
2023/10/03 05:17:47;;;;;;;44.97;19.83;;;18.50;81.10;;;;;;4915275;29;20415;-69
2023/10/03 05:20:14;;;;;;;40.33;20.30;;;18.50;81.40;;;;;;4919836;29;20410;-67
2023/10/03 05:22:41;;;;;;;40.15;20.17;;;18.60;81.40;;;;;;4920142;29;20102;-68
2023/10/03 05:25:13;;;;;;;43.78;21.00;;;18.70;81.50;;;;;;4931906;29;20054;-68
2023/10/03 05:27:41;;;;;;;42.67;20.38;;;18.70;81.50;;;;;;4931185;29;20538;-69
2023/10/03 05:30:08;;;;;;;46.47;21.20;;;18.70;81.80;;;;;;4920749;29;20062;-69
2023/10/03 05:32:38;;;;;;;50.22;23.67;;;18.70;82.20;;;;;;4929219;29;20574;-69
2023/10/03 05:35:08;;;;;;;47.45;23.70;;;18.80;82.00;;;;;;4913398;29;20048;-65
2023/10/03 05:37:34;;;;;;;48.72;22.98;;;18.80;82.20;;;;;;4932468;29;20055;-68
2023/10/03 05:40:11;;;;;;;49.75;22.75;;;18.80;82.40;;;;;;4919660;29;20059;-68
2023/10/03 05:42:40;;;;;;;48.83;23.73;;;18.80;82.30;;;;;;4913083;29;20397;-69
2023/10/03 05:45:08;;;;;;;52.75;23.98;;;18.80;82.30;;;;;;4914225;29;20052;-69
2023/10/03 05:47:33;;;;;;;53.70;24.25;;;18.80;82.40;;;;;;4922643;29;20183;-69
2023/10/03 05:50:00;;;;;;;49.58;23.20;;;18.80;82.40;;;;;;4929067;29;20506;-66
2023/10/03 05:52:25;;;;;;;52.40;23.75;;;18.80;82.30;;;;;;4922789;29;20056;-67
2023/10/03 05:54:51;;;;;;;50.55;24.50;;;18.80;82.30;;;;;;4899289;29;20094;-69
2023/10/03 05:57:17;;;;;;;43.47;20.92;;;18.80;82.20;;;;;;4915260;29;20094;-68
2023/10/03 05:59:43;;;;;;;45.83;20.63;;;18.80;82.00;;;;;;4931158;29;20052;-67
2023/10/03 06:02:09;;;;;;;50.30;20.73;;;18.80;81.80;;;;;;4932031;29;20103;-66
2023/10/03 06:04:36;;;;;;;42.35;19.73;;;18.80;81.80;;;;;;4932279;29;20052;-69
2023/10/03 06:07:06;;;;;;;37.55;19.10;;;18.80;81.50;;;;;;4921749;29;20102;-68
2023/10/03 06:09:32;;;;;;;42.22;18.88;;;18.80;81.50;;;;;;4917306;29;20062;-68
2023/10/03 06:11:58;;;;;;;39.42;18.58;;;18.80;81.50;;;;;;4924768;29;20171;-64
2023/10/03 06:14:24;;;;;;;44.05;18.30;;;18.80;81.30;;;;;;4924119;29;20155;-67
2023/10/03 06:16:50;;;;;;;33.50;17.60;;;18.80;81.30;;;;;;4927812;29;20418;-68
2023/10/03 06:19:18;;;;;;;29.67;16.20;;;18.80;81.20;;;;;;4930062;29;20048;-68
2023/10/03 06:21:43;;;;;;;31.48;17.85;;;18.80;80.90;;;;;;4925286;29;20067;-67
2023/10/03 06:24:09;;;;;;;31.73;17.33;;;18.80;81.20;;;;;;4913014;29;20048;-68
2023/10/03 06:26:34;;;;;;;33.83;16.95;;;18.70;81.10;;;;;;4932644;29;20047;-68
2023/10/03 06:29:00;;;;;;;31.30;15.50;;;18.70;81.20;;;;;;4931160;29;20463;-67
2023/10/03 06:31:26;;;;;;;30.80;16.33;;;18.70;81.10;;;;;;4935270;29;20058;-69
2023/10/03 06:33:51;;;;;;;29.02;15.10;;;18.70;80.90;;;;;;4906385;29;20055;-68
2023/10/03 06:36:17;;;;;;;28.48;15.93;;;18.60;81.00;;;;;;4922505;29;20048;-68
2023/10/03 06:38:43;;;;;;;29.98;15.13;;;18.60;81.10;;;;;;4917842;29;20646;-68
2023/10/03 06:41:09;;;;;;;30.88;15.57;;;18.60;81.20;;;;;;4927052;29;20079;-66
2023/10/03 06:43:35;;;;;;;26.48;14.38;;;18.60;81.20;;;;;;4928680;29;20048;-69
2023/10/03 06:46:00;;;;;;;26.27;14.40;;;18.50;81.00;;;;;;4927786;29;20055;-67
2023/10/03 06:48:26;;;;;;;26.95;13.85;;;18.50;81.00;;;;;;4906364;29;20058;-68
2023/10/03 06:50:53;;;;;;;26.02;13.35;;;18.50;80.90;;;;;;4916658;29;20514;-66
2023/10/03 06:53:19;;;;;;;29.00;15.77;;;18.50;81.00;;;;;;4923229;29;20579;-67
2023/10/03 06:55:45;;;;;;;31.70;15.38;;;18.50;81.10;;;;;;4926868;29;20047;-67
2023/10/03 06:58:11;;;;;;;28.45;14.98;;;18.50;81.20;;;;;;4923304;29;20179;-67
2023/10/03 07:00:38;;;;;;;36.42;15.82;;;18.40;81.20;;;;;;4921815;29;20122;-69
2023/10/03 07:03:04;;;;;;;29.65;14.73;;;18.40;81.20;;;;;;4931338;29;20177;-70
2023/10/03 07:05:29;;;;;;;31.70;14.65;;;18.40;81.20;;;;;;4920649;29;20096;-67
2023/10/03 07:07:55;;;;;;;36.10;14.32;;;18.40;81.20;;;;;;4934914;29;20127;-67
2023/10/03 07:10:21;;;;;;;32.72;14.63;;;18.40;81.20;;;;;;4916970;29;20051;-67
2023/10/03 07:12:48;;;;;;;33.60;13.18;;;18.30;81.20;;;;;;4922117;29;20408;-69
2023/10/03 07:15:14;;;;;;;33.22;13.13;;;18.20;80.70;;;;;;4934366;29;20059;-68
2023/10/03 07:17:40;;;;;;;32.50;12.43;;;18.20;80.70;;;;;;4918286;29;20083;-68
2023/10/03 07:20:08;;;;;;;33.60;11.20;;;18.00;80.70;;;;;;4924374;29;20070;-67
2023/10/03 07:22:34;;;;;;;26.80;10.00;;;18.00;80.70;;;;;;4927245;29;20521;-68
2023/10/03 07:25:00;;;;;;;27.95;9.95;;;17.80;81.00;;;;;;4934577;29;20047;-67
2023/10/03 07:27:26;;;;;;;26.73;9.45;;;17.60;81.20;;;;;;4926194;29;20131;-67
2023/10/03 07:29:52;;;;;;;24.50;8.38;;;17.50;81.40;;;;;;4927664;29;20056;-67
2023/10/03 07:32:18;;;;;;;33.08;9.80;;;17.40;81.50;;;;;;4927143;29;20276;-68
2023/10/03 07:34:46;;;;;;;30.52;9.52;;;17.30;81.70;;;;;;4915445;29;20547;-67
2023/10/03 07:37:12;;;;;;;26.67;8.75;;;17.20;81.80;;;;;;4928053;29;20059;-67
2023/10/03 07:39:40;;;;;;;32.40;8.82;;;17.20;81.90;;;;;;4933873;29;20043;-67
2023/10/03 07:42:06;;;;;;;28.23;7.90;;;17.20;82.10;;;;;;4919237;29;20131;-68
2023/10/03 07:44:38;;;;;;;21.70;6.78;;;17.10;82.20;;;;;;4932641;29;20123;-67
2023/10/03 07:47:04;;;;;;;18.08;5.88;;;17.00;82.00;;;;;;4929653;29;20431;-69
2023/10/03 07:49:31;;;;;;;21.50;5.60;;;17.00;81.70;;;;;;4913988;29;20052;-68
2023/10/03 07:51:59;;;;;;;15.57;5.40;;;16.90;81.70;;;;;;4930904;29;20048;-66
2023/10/03 07:54:31;;;;;;;23.48;5.22;;;16.80;81.80;;;;;;4933518;29;20051;-67
2023/10/03 07:56:58;;;;;;;18.83;4.10;;;16.70;81.50;;;;;;4924383;29;20111;-66
2023/10/03 07:59:25;;;;;;;17.27;4.13;;;16.60;81.60;;;;;;4897476;29;20044;-68
2023/10/03 08:01:51;;;;;;;19.67;3.85;;;16.50;81.70;;;;;;4915495;29;20044;-67
2023/10/03 08:04:17;;;;;;;18.63;3.58;;;16.40;81.60;;;;;;4916074;29;20044;-66
2023/10/03 08:06:44;;;;;;;16.45;3.13;;;16.40;81.50;;;;;;4913216;29;20600;-67
2023/10/03 08:09:13;;;;;;;22.10;3.28;;;16.30;81.60;;;;;;4912813;29;20060;-67
2023/10/03 08:11:39;;;;;;;15.82;3.67;;;16.20;81.70;;;;;;4913853;29;20439;-67
2023/10/03 08:14:13;;;;;;;20.05;3.22;;;16.20;81.90;;;;;;4912666;29;20051;-65
2023/10/03 08:16:43;;;;;;;17.60;3.13;;;16.10;82.10;;;;;;4914804;29;20052;-67
2023/10/03 08:19:21;;;;;;;18.10;3.25;;;16.10;82.20;;;;;;4914067;29;20059;-66
2023/10/03 08:21:48;;;;;;;13.55;2.88;;;16.10;82.40;;;;;;4916071;29;20051;-69
2023/10/03 08:24:18;;;;;;;10.95;2.53;;;16.10;82.30;;;;;;4897971;29;20215;-67
2023/10/03 08:26:46;;;;;;;12.63;2.57;;;16.10;82.20;;;;;;4913063;29;20054;-67
2023/10/03 08:29:21;;;;;;;13.18;2.28;;;16.00;81.80;;;;;;4916697;29;20099;-67
2023/10/03 08:31:57;;;;;;;12.82;2.38;;;16.00;81.80;;;;;;4915685;29;20146;-67
2023/10/03 08:34:24;;;;;;;15.98;2.40;;;16.00;81.60;;;;;;4912188;29;20048;-67
2023/10/03 08:36:54;;;;;;;10.55;1.95;;;16.00;81.50;;;;;;4915014;29;20528;-67
2023/10/03 08:39:23;;;;;;;8.38;1.80;;;16.00;81.10;;;;;;4915661;29;20496;-67
2023/10/03 08:42:12;;;;;;;11.25;1.60;;;16.10;81.40;;;;;;4913634;29;20056;-66
2023/10/03 08:44:49;;;;;;;11.95;1.55;;;16.10;81.10;;;;;;4912860;29;20613;-67
2023/10/03 08:47:28;;;;;;;14.45;1.92;;;16.10;81.10;;;;;;4914055;29;20078;-66
2023/10/03 08:50:11;;;;;;;9.90;1.60;;;16.00;81.30;;;;;;4914633;29;20056;-68
2023/10/03 08:52:48;;;;;;;9.63;1.25;;;16.00;81.40;;;;;;4915652;29;20051;-67
2023/10/03 08:55:19;;;;;;;11.52;1.50;;;15.80;81.50;;;;;;4914468;29;20052;-67
2023/10/03 08:57:49;;;;;;;9.13;1.45;;;15.60;81.60;;;;;;4915256;29;20047;-67
2023/10/03 09:00:15;;;;;;;6.55;1.17;;;15.50;82.00;;;;;;4915646;29;20075;-67
2023/10/03 09:02:49;;;;;;;11.85;1.42;;;15.40;82.20;;;;;;4909987;29;20044;-66
2023/10/03 09:05:19;;;;;;;6.82;1.10;;;15.30;82.40;;;;;;4911000;29;20499;-67
2023/10/03 09:07:46;;;;;;;9.20;1.40;;;15.30;82.30;;;;;;4913037;29;20534;-68
2023/10/03 09:10:22;;;;;;;11.57;1.40;;;15.20;82.30;;;;;;4914952;29;20091;-67
2023/10/03 09:12:52;;;;;;;6.50;1.27;;;15.10;82.40;;;;;;4911006;29;20056;-68
2023/10/03 09:15:22;;;;;;;6.68;0.95;;;15.00;82.50;;;;;;4920695;29;20127;-67
2023/10/03 09:17:50;;;;;;;9.13;1.23;;;15.00;82.20;;;;;;4899963;29;20044;-67
2023/10/03 09:20:21;;;;;;;4.85;1.10;;;15.00;82.30;;;;;;4919835;29;20150;-68
2023/10/03 09:22:47;;;;;;;5.60;1.10;;;15.00;82.50;;;;;;4911846;29;20051;-66
2023/10/03 09:25:15;;;;;;;7.20;0.77;;;14.90;82.40;;;;;;4920915;29;20066;-66
2023/10/03 09:27:41;;;;;;;9.15;0.70;;;14.90;82.40;;;;;;4912619;29;20056;-67
2023/10/03 09:30:22;;;;;;;6.50;0.80;;;14.90;82.50;;;;;;4905819;29;20495;-67
2023/10/03 09:32:49;;;;;;;5.35;0.82;;;14.90;82.40;;;;;;4919043;29;20044;-67
2023/10/03 09:35:15;;;;;;;8.80;1.08;;;14.80;82.30;;;;;;4910376;29;20221;-64
2023/10/03 09:37:48;;;;;;;5.60;0.60;;;14.80;82.40;;;;;;4912063;29;20155;-68
2023/10/03 09:40:17;;;;;;;4.55;0.70;;;14.80;82.60;;;;;;4911337;29;20518;-66
2023/10/03 09:42:50;;;;;;;7.78;0.88;;;14.80;82.70;;;;;;4919691;29;20059;-69
2023/10/03 09:45:24;;;;;;;3.55;0.30;;;14.80;82.70;;;;;;4918206;29;20111;-67
2023/10/03 09:47:58;;;;;;;3.67;0.40;;;14.80;82.60;;;;;;4901005;29;20070;-66
2023/10/03 09:50:30;;;;;;;2.70;0.30;;;14.70;82.60;;;;;;4907560;29;20454;-66
2023/10/03 09:53:01;;;;;;;2.38;0.20;;;14.70;82.60;;;;;;4922495;29;20062;-67
2023/10/03 09:55:41;;;;;;;4.18;0.20;;;14.60;82.40;;;;;;4915642;29;20478;-67
2023/10/03 09:58:07;;;;;;;5.35;0.32;;;14.60;82.30;;;;;;4913483;29;20052;-68
2023/10/03 10:00:41;;;;;;;4.18;0.43;;;14.50;82.30;;;;;;4920152;29;20392;-67
2023/10/03 10:03:11;;;;;;;3.50;0.50;;;14.50;82.50;;;;;;4916388;29;20147;-67
2023/10/03 10:05:39;;;;;;;4.80;0.80;;;14.50;82.50;;;;;;4929141;29;20051;-67
2023/10/03 10:08:14;;;;;;;6.88;1.15;;;14.50;82.60;;;;;;4913927;29;20426;-66
2023/10/03 10:10:41;;;;;;;6.25;1.00;;;14.50;82.70;;;;;;4911077;29;20082;-66
2023/10/03 10:13:20;;;;;;;9.63;1.17;;;14.60;82.70;;;;;;4914517;29;20071;-67
2023/10/03 10:16:07;;;;;;;6.15;1.52;;;14.60;82.60;;;;;;4922595;29;20048;-66
2023/10/03 10:18:45;;;;;;;9.55;1.60;;;14.60;82.30;;;;;;4920324;29;20047;-67
2023/10/03 10:21:20;;;;;;;8.55;1.88;;;14.60;82.10;;;;;;4917445;29;20071;-67
2023/10/03 10:24:20;;;;;;;7.35;1.80;;;14.50;82.30;;;;;;4914158;29;20060;-67
2023/10/03 10:26:48;;;;;;;11.32;2.00;;;14.50;82.10;;;;;;4921021;29;20566;-67
2023/10/03 10:29:19;;;;;;;10.90;1.95;;;14.50;82.00;;;;;;4917477;29;20147;-66
2023/10/03 10:31:52;;;;;;;12.50;2.28;;;14.50;82.10;;;;;;4924951;29;20051;-64
2023/10/03 10:34:20;;;;;;;9.57;2.40;;;14.60;82.00;;;;;;4910708;29;20056;-67
2023/10/03 10:37:28;;;;;;;10.43;2.40;;;14.60;82.00;;;;;;4912928;29;20060;-67
2023/10/03 10:40:04;;;;;;;13.23;2.17;;;14.70;82.00;;;;;;4912156;29;20060;-67
2023/10/03 10:42:31;;;;;;;13.70;2.10;;;14.70;81.80;;;;;;4912348;29;20431;-67
2023/10/03 10:45:15;;;;;;;12.38;2.72;;;14.80;81.40;;;;;;4916452;29;20621;-67
2023/10/03 10:47:45;;;;;;;9.57;2.17;;;14.70;80.50;;;;;;4919605;29;20060;-66
2023/10/03 10:50:11;;;;;;;11.55;2.33;;;14.80;80.40;;;;;;4896611;29;20539;-67
2023/10/03 10:52:52;;;;;;;10.90;2.50;;;14.80;79.70;;;;;;4913030;29;20079;-66
2023/10/03 10:55:17;;;;;;;11.82;3.53;;;14.70;78.60;;;;;;4915846;29;20083;-65
2023/10/03 10:57:44;;;;;;;12.15;3.00;;;14.60;77.50;;;;;;4889551;29;20110;-66
2023/10/03 11:00:20;;;;;;;12.38;3.80;;;14.40;78.50;;;;;;4913527;29;20077;-65
2023/10/03 11:02:46;;;;;;;14.85;3.67;;;14.40;78.50;;;;;;4915827;29;20533;-68
2023/10/03 11:05:12;;;;;;;8.23;3.03;;;14.30;78.60;;;;;;4915351;29;20044;-65
2023/10/03 11:07:45;;;;;;;12.05;3.50;;;14.30;78.70;;;;;;4912947;29;20052;-67
2023/10/03 11:10:12;;;;;;;11.10;3.63;;;14.30;79.00;;;;;;4911931;29;20050;-66
2023/10/03 11:12:38;;;;;;;15.73;3.88;;;14.30;79.20;;;;;;4910936;29;20569;-66
2023/10/03 11:15:10;;;;;;;12.10;3.25;;;14.30;79.00;;;;;;4926218;29;20119;-66
2023/10/03 11:17:37;;;;;;;7.70;3.17;;;14.30;79.10;;;;;;4924538;29;20055;-67
2023/10/03 11:20:08;;;;;;;12.63;3.13;;;14.30;78.70;;;;;;4931081;29;20051;-66
2023/10/03 11:22:37;;;;;;;13.65;3.20;;;14.40;77.90;;;;;;4925760;29;20134;-65
2023/10/03 11:25:09;;;;;;;12.02;3.20;;;14.40;77.90;;;;;;4912743;29;20098;-66
2023/10/03 11:27:34;;;;;;;;;;;14.50;78.00;;;;;;4916516;29;20044;-65
2023/10/03 11:30:13;;;;;;;9.75;2.70;;;14.50;77.20;;;;;;4925962;29;20384;-66
2023/10/03 11:32:39;;;;;;;9.00;2.30;;;14.50;77.20;;;;;;4917480;29;20476;-67
2023/10/03 11:35:35;;;;;;;8.18;2.53;;;14.60;76.90;;;;;;4918888;29;20213;-66
2023/10/03 11:38:06;;;;;;;9.75;2.30;;;14.60;75.10;;;;;;4884447;29;20063;-66
2023/10/03 11:40:32;;;;;;;9.18;2.40;;;14.70;76.80;;;;;;4896452;29;20078;-66
2023/10/03 11:43:07;;;;;;;8.63;2.08;;;14.80;76.60;;;;;;4918701;29;20058;-66
2023/10/03 11:45:34;;;;;;;10.90;2.60;;;14.80;76.10;;;;;;4915155;29;20058;-67
2023/10/03 11:48:19;;;;;;;11.68;2.67;;;14.80;75.70;;;;;;4919155;29;20180;-67
2023/10/03 11:50:45;;;;;;;12.07;2.38;;;14.90;75.50;;;;;;4901860;29;20116;-67
2023/10/03 11:53:12;;;;;;;11.82;3.10;;;14.90;75.20;;;;;;4919107;29;20083;-67
2023/10/03 11:55:40;;;;;;;13.52;3.00;;;14.90;75.10;;;;;;4925232;29;20080;-66
2023/10/03 11:58:10;;;;;;;9.70;2.20;;;14.90;74.70;;;;;;4898550;29;20511;-67
2023/10/03 12:00:36;;;;;;;9.93;2.58;;;14.80;74.30;;;;;;4898761;29;20063;-66
2023/10/03 12:03:04;;;;;;;10.10;2.50;;;14.70;74.50;;;;;;4906654;29;20048;-67
2023/10/03 12:05:30;;;;;;;8.27;2.58;;;14.60;74.80;;;;;;4901148;29;20146;-66
2023/10/03 12:07:56;;;;;;;11.35;2.80;;;14.50;75.30;;;;;;4919052;29;20513;-67
2023/10/03 12:10:30;;;;;;;12.85;3.08;;;14.40;75.80;;;;;;4921506;29;20439;-67
2023/10/03 12:12:56;;;;;;;12.63;2.45;;;14.40;76.20;;;;;;4919993;29;20075;-66
2023/10/03 12:15:23;;;;;;;14.23;2.95;;;14.30;76.80;;;;;;4928049;29;20048;-67
2023/10/03 12:17:50;;;;;;;11.02;3.15;;;14.30;77.10;;;;;;4927852;29;20447;-67
2023/10/03 12:20:18;;;;;;;13.07;3.20;;;14.30;77.20;;;;;;4916619;29;20056;-67
2023/10/03 12:22:49;;;;;;;10.40;2.72;;;14.30;77.50;;;;;;4914287;29;20098;-66
2023/10/03 12:25:18;;;;;;;11.13;2.72;;;14.30;77.60;;;;;;4922643;29;20598;-67
2023/10/03 12:27:44;;;;;;;12.10;3.10;;;14.30;77.70;;;;;;4925321;29;20147;-66
2023/10/03 12:30:15;;;;;;;11.70;2.78;;;14.40;77.80;;;;;;4916521;29;20091;-67
2023/10/03 12:32:44;;;;;;;8.15;2.20;;;14.50;77.20;;;;;;4930553;29;20048;-66
2023/10/03 12:35:11;;;;;;;7.43;1.90;;;14.60;77.30;;;;;;4913241;29;20448;-66
2023/10/03 12:37:38;;;;;;;6.75;2.25;;;14.70;76.10;;;;;;4926664;29;20122;-66
2023/10/03 12:40:13;;;;;;;9.82;2.30;;;14.80;74.60;;;;;;4924440;29;20079;-67
2023/10/03 12:42:41;;;;;;;7.30;1.88;;;14.80;75.10;;;;;;4919417;29;20533;-66
2023/10/03 12:45:07;;;;;;;7.75;2.25;;;14.90;73.70;;;;;;4933360;29;20047;-67
2023/10/03 12:47:35;;;;;;;8.27;2.35;;;14.80;73.70;;;;;;4932196;29;20083;-65
2023/10/03 12:50:01;;;;;;;12.85;2.50;;;14.90;74.10;;;;;;4928645;29;20054;-67